Ontonagon, Michigan
Current Conditions -  °F | °C
As of 9:53 PM on Monday 20 Oct 2014 (Local Time) from KCMX Reporting Station
Overcast Overcast  
Wind Chill: 36°   Ceiling: 1400
Heat Index: 42°   Visibility: 10mi
Dew Point: 36°   Wind: 10mph
Humidity: 79%   Direction: 10°N
Pressure: 30.06"   Gusts: NA
Location:  46.87°N, 89.31°W
Report Text: KCMX 210153Z AUTO 01009KT 10SM OVC014 06/02 A3006 RMK AO2 SLP186 T00560022
Loading
Personal Weather Stations






























Interactive Weather Map
Tropical Storm Tracking
New forecast layout! Learn more

10-Day Weather Forecast

Advertisements
Track Severe Weather on mobile